createdAt,value
2019-04-28T00:07:16.176Z,29.8
2019-04-28T00:24:58.021Z,30.2
2019-04-28T00:27:54.716Z,30.2
2019-04-28T00:42:41.352Z,30.4
2019-04-28T00:45:36.740Z,30.5
2019-04-28T01:12:11.168Z,31.4
2019-04-28T01:32:49.847Z,31.9
2019-04-28T01:35:45.785Z,32
2019-04-28T01:38:42.979Z,32.1
2019-04-28T01:44:39.038Z,32.3
2019-04-28T01:56:25.058Z,31.8
2019-04-28T02:34:46.243Z,32.8
2019-04-28T02:37:42.882Z,32.9
2019-04-28T02:40:40.654Z,32.9
2019-04-28T02:43:36.872Z,32.9
2019-04-28T02:46:34.082Z,32.9
2019-04-28T02:52:30.560Z,32.8
2019-04-28T02:58:22.606Z,32.8
2019-04-28T03:07:14.545Z,32.7
2019-04-28T03:13:07.231Z,33.1
2019-04-28T03:16:03.959Z,33.1
2019-04-28T03:19:01.467Z,33.2
2019-04-28T03:27:52.126Z,33.8
2019-04-28T03:33:48.832Z,34.2
2019-04-28T03:42:37.183Z,34
2019-04-28T03:45:33.999Z,34
2019-04-28T03:48:33.522Z,33.9
2019-04-28T03:51:30.558Z,33.8
2019-04-28T03:54:25.217Z,33.8
2019-04-28T03:57:22.186Z,33.9
2019-04-28T04:00:21.664Z,33.8
2019-04-28T04:03:16.034Z,33.6
2019-04-28T04:06:13.180Z,33.2
2019-04-28T04:09:11.200Z,32.5
2019-04-28T04:12:07.270Z,31.8
2019-04-28T04:15:04.206Z,31.3
2019-04-28T04:21:00.530Z,30.7
2019-04-28T04:23:55.129Z,30.5
2019-04-28T04:26:52.262Z,30.3
2019-04-28T04:32:47.304Z,30
2019-04-28T04:35:43.594Z,30.2
2019-04-28T04:38:45.771Z,30.6
2019-04-28T04:41:37.102Z,30.8
2019-04-28T04:44:37.728Z,31
2019-04-28T04:47:32.849Z,31.1
2019-04-28T04:53:25.291Z,31.6
2019-04-28T04:56:22.408Z,31.8
2019-04-28T04:59:20.206Z,32
2019-04-28T05:02:26.313Z,32.1
2019-04-28T05:05:13.336Z,32.3
2019-04-28T05:08:13.988Z,32.5
2019-04-28T05:14:07.265Z,32.9
2019-04-28T05:19:59.483Z,33.1
2019-04-28T05:22:55.157Z,33.2
2019-04-28T05:25:52.350Z,33.4
2019-04-28T05:28:52.914Z,33.6
2019-04-28T05:31:46.598Z,33.8
2019-04-28T05:34:46.443Z,34
2019-04-28T05:46:31.576Z,34.6
2019-04-28T05:49:29.679Z,34.7
2019-04-28T05:52:25.413Z,34.8
2019-04-28T05:55:22.411Z,34.8
2019-04-28T05:58:19.858Z,35
2019-04-28T06:01:16.354Z,35.1
2019-04-28T06:07:10.462Z,35.3
2019-04-28T06:16:01.434Z,35.5
2019-04-28T06:18:59.943Z,35.6
2019-04-28T06:21:55.463Z,35.7
2019-04-28T06:24:52.262Z,35.8
2019-04-28T06:27:49.456Z,36
2019-04-28T06:30:46.264Z,36
2019-04-28T06:33:44.537Z,36
2019-04-28T06:36:40.276Z,36.1
2019-04-28T06:39:37.492Z,36.2
2019-04-28T06:42:34.279Z,36.3
2019-04-28T06:45:31.492Z,36.3
2019-04-28T07:00:17.005Z,36.3
2019-04-28T07:03:22.833Z,36.3
2019-04-28T07:09:07.622Z,36.4
2019-04-28T07:20:55.559Z,36.5
2019-04-28T07:26:49.637Z,36.5
2019-04-28T07:29:46.434Z,36.5
2019-04-28T07:32:43.574Z,36.4
2019-04-28T07:50:26.245Z,36.4
2019-04-28T08:02:13.834Z,36.5
2019-04-28T08:08:07.660Z,36.5
2019-04-28T08:28:46.671Z,36.7
2019-04-28T08:31:43.471Z,36.7
2019-04-28T08:40:35.169Z,36.8
2019-04-28T08:46:28.723Z,36.8
2019-04-28T08:52:22.727Z,36.7
2019-04-28T09:04:15.309Z,36.6
2019-04-28T09:10:04.766Z,36.5
2019-04-28T09:15:58.799Z,36.4
2019-04-28T09:18:55.558Z,36.4
2019-04-28T09:21:52.823Z,36.3
2019-04-28T09:24:49.685Z,36.3
2019-04-28T09:30:43.791Z,36.1
2019-04-28T09:36:37.797Z,35.9
2019-04-28T09:39:34.598Z,35.8
2019-04-28T09:42:31.825Z,35.8
2019-04-28T09:45:29.048Z,35.8
2019-04-28T09:48:25.816Z,35.7
2019-04-28T10:00:13.924Z,35.4
2019-04-28T10:03:10.762Z,35.4
2019-04-28T10:09:04.890Z,35.2
2019-04-28T10:14:58.930Z,35.1
2019-04-28T10:17:55.718Z,35
2019-04-28T10:20:52.870Z,35
2019-04-28T10:35:37.891Z,34.6
2019-04-28T10:38:34.745Z,34.5
2019-04-28T10:50:22.911Z,34
2019-04-28T10:53:19.754Z,34
2019-04-28T10:56:16.957Z,33.9
2019-04-28T11:02:11.029Z,33.7
2019-04-28T11:05:08.991Z,33.6
2019-04-28T11:08:04.952Z,33.6
2019-04-28T11:11:01.849Z,33.5
2019-04-28T11:13:59.182Z,33.4
2019-04-28T11:16:55.770Z,33.3
2019-04-28T11:31:41.006Z,32.8
2019-04-28T11:37:35.012Z,32.8
2019-04-28T11:43:29.053Z,32.6
2019-04-28T11:46:25.814Z,32.6
2019-04-28T11:49:23.072Z,32.4
2019-04-28T11:55:17.043Z,32.3
2019-04-28T11:58:13.878Z,32.3
2019-04-28T12:01:11.049Z,32.3
2019-04-28T12:04:07.909Z,32.2
2019-04-28T12:07:05.061Z,32.2
2019-04-28T12:10:06.101Z,32.1
2019-04-28T12:12:59.059Z,32
2019-04-28T12:15:55.881Z,32
2019-04-28T12:18:53.313Z,32
2019-04-28T12:21:49.935Z,32
2019-04-28T12:24:47.132Z,31.9
2019-04-28T12:27:43.878Z,31.9
2019-04-28T12:30:41.077Z,31.9
2019-04-28T12:33:38.210Z,31.9
2019-04-28T12:36:35.111Z,31.8
2019-04-28T12:39:32.063Z,31.8
2019-04-28T12:42:29.115Z,31.8
2019-04-28T12:45:34.736Z,31.8
2019-04-28T12:48:23.100Z,31.7
2019-04-28T12:51:19.945Z,31.6
2019-04-28T13:03:08.117Z,31.6
2019-04-28T13:06:05.865Z,31.6
2019-04-28T13:09:02.379Z,31.6
2019-04-28T13:14:56.155Z,31.5
2019-04-28T13:17:53.000Z,31.5
2019-04-28T13:20:50.288Z,31.6
2019-04-28T13:23:47.027Z,31.5
2019-04-28T13:26:44.237Z,31.5
2019-04-28T13:29:40.979Z,31.5
2019-04-28T13:32:38.197Z,31.5
2019-04-28T13:35:35.099Z,31.5
2019-04-28T13:41:29.284Z,31.4
2019-04-28T13:44:26.057Z,31.4
2019-04-28T13:50:20.190Z,31.3
2019-04-28T13:53:17.052Z,31.3
2019-04-28T13:56:14.203Z,31.2
2019-04-28T14:02:08.211Z,31.2
2019-04-28T14:05:05.099Z,31.2
2019-04-28T14:08:02.222Z,31.2
2019-04-28T14:10:59.272Z,31.2
2019-04-28T14:13:56.106Z,31.2
2019-04-28T14:22:47.417Z,31.1
2019-04-28T14:25:44.098Z,31
2019-04-28T14:31:38.236Z,31
2019-04-28T14:34:35.121Z,31
2019-04-28T14:43:26.306Z,30.9
2019-04-28T14:46:23.153Z,30.9
2019-04-28T14:49:20.345Z,30.9
2019-04-28T14:52:17.257Z,30.9
2019-04-28T14:55:14.372Z,30.9
2019-04-28T15:01:08.451Z,30.8
2019-04-28T15:04:05.160Z,30.8
2019-04-28T15:07:02.338Z,30.8
2019-04-28T15:09:59.244Z,30.7
2019-04-28T15:12:56.385Z,30.7
2019-04-28T15:21:47.415Z,30.8
2019-04-28T15:33:35.523Z,30.6
2019-04-28T15:45:23.400Z,30.7
2019-04-28T15:48:20.296Z,30.6
2019-04-28T15:54:14.402Z,30.6
2019-04-28T15:57:11.243Z,30.6
2019-04-28T16:00:08.383Z,30.6
2019-04-28T16:03:05.212Z,30.6
2019-04-28T16:06:02.413Z,30.7
2019-04-28T16:08:59.220Z,30.6
2019-04-28T16:17:50.482Z,30.5
2019-04-28T16:23:44.436Z,30.6
2019-04-28T16:26:41.255Z,30.6
2019-04-28T16:29:38.460Z,30.6
2019-04-28T16:32:35.268Z,30.6
2019-04-28T16:35:32.672Z,30.5
2019-04-28T16:38:29.266Z,30.5
2019-04-28T16:41:26.562Z,30.4
2019-04-28T16:44:23.317Z,30.4
2019-04-28T16:47:20.565Z,30.4
2019-04-28T16:50:17.283Z,30.4
2019-04-28T16:53:14.459Z,30.3
2019-04-28T16:56:11.296Z,30.2
2019-04-28T16:59:08.458Z,30.2
2019-04-28T17:05:02.568Z,30.2
2019-04-28T17:07:59.363Z,30.2
2019-04-28T17:10:56.473Z,30.2
2019-04-28T17:13:53.355Z,30.2
2019-04-28T17:16:50.715Z,30.2
2019-04-28T17:19:47.569Z,30.2
2019-04-28T17:22:44.749Z,30.3
2019-04-28T17:34:32.724Z,30.2
2019-04-28T17:37:29.435Z,30.2
2019-04-28T17:40:26.776Z,30.1
2019-04-28T17:43:23.424Z,30.2
2019-04-28T17:49:17.592Z,30.1
2019-04-28T17:55:11.596Z,30
2019-04-28T17:58:08.410Z,30
2019-04-28T18:01:05.598Z,30
2019-04-28T18:04:02.460Z,30
2019-04-28T18:06:59.777Z,30
2019-04-28T18:09:56.458Z,30
2019-04-28T18:13:00.165Z,30
2019-04-28T18:18:47.883Z,29.9
2019-04-28T18:24:41.830Z,29.9
2019-04-28T18:27:38.485Z,29.8
2019-04-28T18:30:36.065Z,29.8
2019-04-28T18:33:32.515Z,29.9
2019-04-28T18:39:26.921Z,29.8
2019-04-28T18:42:23.762Z,29.8
2019-04-28T18:51:14.889Z,29.6
2019-04-28T18:54:11.509Z,29.6
2019-04-28T18:57:08.710Z,29.6
2019-04-28T19:00:05.562Z,29.6
2019-04-28T19:03:02.892Z,29.6
2019-04-28T19:05:59.571Z,29.6
2019-04-28T19:08:56.767Z,29.6
2019-04-28T19:11:53.835Z,29.6
2019-04-28T19:14:50.750Z,29.5
2019-04-28T19:17:47.571Z,29.4
2019-04-28T19:20:44.778Z,29.4
2019-04-28T19:23:41.569Z,29.4
2019-04-28T19:26:38.829Z,29.4
2019-04-28T19:29:35.600Z,29.3
2019-04-28T19:32:32.765Z,29.2
2019-04-28T19:35:29.629Z,29.2
2019-04-28T19:38:26.789Z,29.2
2019-04-28T19:41:23.964Z,29.2
2019-04-28T19:44:20.857Z,29.2
2019-04-28T19:47:17.658Z,29.1
2019-04-28T19:53:13.120Z,29
2019-04-28T19:56:08.884Z,29
2019-04-28T19:59:06.066Z,29
2019-04-28T20:02:02.798Z,28.9
2019-04-28T20:05:00.012Z,28.8
2019-04-28T20:10:54.052Z,28.8
2019-04-28T20:16:47.829Z,28.8
2019-04-28T20:19:44.734Z,28.8
2019-04-28T20:22:41.854Z,28.7
2019-04-28T20:25:38.684Z,28.7
2019-04-28T20:28:35.826Z,28.7
2019-04-28T20:34:29.863Z,28.6
2019-04-28T20:37:26.741Z,28.6
2019-04-28T20:43:21.078Z,28.5
2019-04-28T20:46:17.701Z,28.5
2019-04-28T20:52:11.874Z,28.4
2019-04-28T20:55:08.745Z,28.4
2019-04-28T20:58:05.965Z,28.4
2019-04-28T21:01:02.731Z,28.4
2019-04-28T21:03:59.901Z,28.4
2019-04-28T21:06:56.981Z,28.3
2019-04-28T21:09:54.234Z,28.3
2019-04-28T21:12:50.751Z,28.2
2019-04-28T21:15:47.914Z,28.2
2019-04-28T21:18:45.057Z,28.2
2019-04-28T21:21:41.935Z,28.2
2019-04-28T21:27:36.500Z,28.2
2019-04-28T21:30:32.904Z,28.3
2019-04-28T21:33:30.010Z,28.2
2019-04-28T21:36:26.776Z,28.2
2019-04-28T21:39:24.207Z,28.2
2019-04-28T21:42:20.967Z,28.2
2019-04-28T21:45:18.000Z,28.1
2019-04-28T21:48:14.796Z,28.1
2019-04-28T21:54:09.008Z,28.1
2019-04-28T22:00:03.333Z,28
2019-04-28T22:02:59.838Z,28
2019-04-28T22:05:57.024Z,28
2019-04-28T22:08:53.983Z,28.1
2019-04-28T22:11:51.148Z,28.1
2019-04-28T22:14:47.888Z,28.1
2019-04-28T22:17:45.223Z,28.1
2019-04-28T22:20:41.852Z,28
2019-04-28T22:23:39.003Z,28.1
2019-04-28T22:26:35.916Z,28.1
2019-04-28T22:29:33.078Z,28
2019-04-28T22:38:24.066Z,28
2019-04-28T22:41:21.065Z,28
2019-04-28T22:44:18.099Z,28.1
2019-04-28T22:47:14.868Z,28
2019-04-28T22:50:12.223Z,28
2019-04-28T22:53:08.869Z,28
2019-04-28T22:56:06.065Z,28.1
2019-04-28T22:59:02.888Z,28.1
2019-04-28T23:02:00.224Z,28
2019-04-28T23:04:56.988Z,28
2019-04-28T23:07:54.236Z,28
2019-04-28T23:10:51.115Z,28
2019-04-28T23:13:48.230Z,28
2019-04-28T23:16:44.860Z,28
2019-04-28T23:19:42.116Z,28.1
2019-04-28T23:22:46.513Z,28.1
2019-04-28T23:25:36.746Z,28
2019-04-28T23:28:33.224Z,28.1
2019-04-28T23:31:30.058Z,28.1
2019-04-28T23:34:27.400Z,28.2
2019-04-28T23:37:24.432Z,28.2
2019-04-28T23:40:21.013Z,28.3
2019-04-28T23:43:18.158Z,28.2
2019-04-28T23:46:14.922Z,28.3
2019-04-28T23:49:12.091Z,28.3
2019-04-28T23:52:09.107Z,28.3
2019-04-28T23:58:03.145Z,28.4
